Aviation Digital Data Service (ADDS)

Output produced by METARs form (0424 UTC 29 March 2015)
found at http://aviationweather.gov/adds/metars/
 
KERI 282325Z 2900/2924 26008KT P6SM SKC 
     FM291500 19010KT P6SM BKN250